Skip Navigation LinksHome page > Weather > Current weather Skip Navigation Links

Current Weather

Moundou, Chad

For information only: do not use for flight planning or navigation.
Latest weather
Observation time Monday, March 30, 2015 4:00 PM WAT
Local time Monday, March 30, 2015 6:28 PM WAT
Flight conditions Visual Meteorological Conditions
Winds
Wind direction Southeast (140°)
Wind speed 9 mph
Visibility 6.2 mi.
Sky condition
Ceiling unlimited
Sky clear
Temperature 100°F
Dewpoint 28°F
Altimeter 29.80 in.Hg
Derived measurements
Relative humidity 8%
Heat index 100°F
Density altitude 3250 ft.
Remarks
Ceiling and visibility OK.
METAR FTTD 301500Z 14008KT CAVOK 38/M02 Q1009

Settings

Location code

InnerDrive.Weather 4.0.5567.0 Release CLR 4.0.30319.34014
Copyright ©2015 Inner Drive Technology. All rights reserved. Portions Copyright ©1986-2015 David Braverman.

Find weather

Site navigation


Skip Navigation Links

Place info

Page info

PayPal - The safer, easier way to pay online!

Return home.

Copyright ©2015 Inner Drive Technology. Purveyors of fine, hand-crafted computer software. Page printed 2015-03-30T17:28:10 UTC.